Time;durP1;ratioP1;P1;durP2;ratioP2;P2;SDS_P1;SDS_P2;PMS_P1;PMS_P2;Temp;Humidity;BMP_temperature;BMP_pressure;BME280_temperature;BME280_humidity;BME280_pressure;Samples;Min_cycle;Max_cycle;Signal;HPM_P1;HPM_P2
2022/07/06 00:00:50;;;;;;;9.77;4.75;;;;;;;10.85;100.00;163400.19;4990254;28;20046;-61
2022/07/06 00:03:16;;;;;;;5.38;4.68;;;;;;;10.77;100.00;163381.28;4987844;28;20022;-61
2022/07/06 00:05:41;;;;;;;5.28;4.80;;;;;;;10.72;100.00;163367.78;4971026;28;20039;-61
2022/07/06 00:08:07;;;;;;;6.65;4.15;;;;;;;10.68;100.00;163357.03;4972360;28;20034;-61
2022/07/06 00:10:32;;;;;;;7.78;4.20;;;;;;;10.67;100.00;163352.94;4971322;28;20057;-61
2022/07/06 00:12:57;;;;;;;7.03;4.45;;;;;;;10.62;100.00;163340.78;4971954;28;20034;-61
2022/07/06 00:15:23;;;;;;;9.40;5.38;;;;;;;10.59;100.00;163332.72;4970972;28;20046;-61
2022/07/06 00:17:48;;;;;;;10.77;5.30;;;;;;;10.54;100.00;163320.56;4972519;28;20025;-61
2022/07/06 00:20:13;;;;;;;6.82;4.93;;;;;;;10.50;100.00;163308.41;4971538;28;20419;-58
2022/07/06 00:22:39;;;;;;;7.10;5.25;;;;;;;10.42;100.00;163289.50;4972578;28;20083;-57
2022/07/06 00:25:05;;;;;;;4.97;4.22;;;;;;;10.37;100.00;163276.03;4970676;28;20045;-62
2022/07/06 00:27:30;;;;;;;7.78;5.03;;;;;;;10.33;100.00;163265.16;4971845;28;20069;-61
2022/07/06 00:29:55;;;;;;;5.72;4.35;;;;;;;10.28;100.00;163251.66;4986610;28;20034;-61
2022/07/06 00:32:20;;;;;;;6.50;5.20;;;;;;;10.28;100.00;163251.66;4985350;28;20034;-62
2022/07/06 00:34:46;;;;;;;6.22;4.47;;;;;;;10.27;100.00;163248.97;4990128;28;20027;-61
2022/07/06 00:37:11;;;;;;;5.38;4.03;;;;;;;10.28;100.00;163251.66;4991493;28;20072;-61
2022/07/06 00:39:37;;;;;;;6.75;4.63;;;;;;;10.28;100.00;163251.66;4990366;28;20030;-61
2022/07/06 00:42:02;;;;;;;6.20;5.32;;;;;;;10.31;100.00;163259.78;4974103;28;20070;-61
2022/07/06 00:44:28;;;;;;;5.25;4.68;;;;;;;10.35;100.00;163270.56;4972163;28;20033;-61
2022/07/06 00:46:54;;;;;;;9.73;4.18;;;;;;;10.36;100.00;163273.25;4990321;28;20052;-61
2022/07/06 00:52:03;;;;;;;8.32;4.25;;;;;;;10.40;100.00;163284.09;4986274;28;20093;-60
2022/07/06 00:54:32;;;;;;;13.85;6.78;;;;;;;10.31;100.00;163259.78;4971718;28;20062;-60
2022/07/06 00:56:57;;;;;;;6.95;5.75;;;;;;;10.51;100.00;163311.09;4972238;28;20026;-61
2022/07/06 00:59:24;;;;;;;4.57;3.83;;;;;;;10.44;100.00;163294.91;4975820;28;20595;-60
2022/07/06 01:01:49;;;;;;;6.75;4.28;;;;;;;10.67;100.00;163352.94;5005496;28;20042;-60
2022/07/06 01:04:14;;;;;;;5.40;4.30;;;;;;;10.71;100.00;163365.09;5014470;28;20540;-62
2022/07/06 01:06:40;;;;;;;10.13;5.53;;;;;;;10.78;100.00;163382.66;5013494;28;20045;-61
2022/07/06 01:09:06;;;;;;;5.78;4.03;;;;;;;10.83;100.00;163394.81;5014385;28;20041;-61
2022/07/06 01:11:31;;;;;;;7.47;4.53;;;;;;;10.88;100.00;163409.63;5013103;28;20048;-62
2022/07/06 01:13:59;;;;;;;5.07;3.85;;;;;;;10.94;100.00;163424.50;5014762;28;20030;-61
2022/07/06 01:16:25;;;;;;;5.65;3.28;;;;;;;11.01;100.00;163443.38;5009355;28;20045;-61
2022/07/06 01:18:50;;;;;;;6.43;4.45;;;;;;;11.08;100.00;163462.28;4994781;28;20023;-61
2022/07/06 01:21:15;;;;;;;6.55;3.92;;;;;;;11.01;100.00;163443.38;4993500;28;20050;-61
2022/07/06 01:23:47;;;;;;;7.85;4.88;;;;;;;11.18;100.00;163486.59;4994841;28;20026;-61
2022/07/06 01:26:17;;;;;;;4.45;4.05;;;;;;;11.21;100.00;163494.69;4992954;28;20517;-62
2022/07/06 01:28:43;;;;;;;11.43;3.90;;;;;;;11.09;100.00;163465.00;4994993;28;20125;-61
2022/07/06 01:31:20;;;;;;;6.55;4.32;;;;;;;11.21;100.00;163494.69;5003707;28;20132;-62
2022/07/06 01:33:46;;;;;;;7.70;3.70;;;;;;;11.21;100.00;163494.69;4998328;28;20022;-61
2022/07/06 01:36:12;;;;;;;6.15;4.15;;;;;;;11.21;100.00;163494.69;4992995;28;20569;-61
2022/07/06 01:38:54;;;;;;;2.95;2.75;;;;;;;11.19;100.00;163489.31;4994863;28;20038;-63
2022/07/06 01:41:20;;;;;;;5.28;3.30;;;;;;;11.14;100.00;163475.78;4992870;28;20057;-62
2022/07/06 01:43:46;;;;;;;6.75;2.72;;;;;;;11.09;100.00;163463.66;4994711;28;20030;-62
2022/07/06 01:46:12;;;;;;;11.02;3.85;;;;;;;11.02;100.00;163446.09;4993718;28;20065;-62
2022/07/06 01:48:38;;;;;;;7.70;4.00;;;;;;;10.94;100.00;163424.50;5012179;28;20173;-62
2022/07/06 01:51:04;;;;;;;5.55;3.20;;;;;;;10.86;100.00;163402.88;5006124;28;20074;-61
2022/07/06 01:53:29;;;;;;;6.80;3.58;;;;;;;10.77;100.00;163381.28;5009160;28;20030;-60
2022/07/06 01:55:55;;;;;;;5.95;4.53;;;;;;;10.71;100.00;163363.75;5010602;28;20048;-60
2022/07/06 01:58:20;;;;;;;3.67;3.15;;;;;;;10.65;100.00;163348.91;5013848;28;20393;-60
2022/07/06 02:00:45;;;;;;;5.20;3.40;;;;;;;10.58;100.00;163330.00;5005899;28;20039;-61
2022/07/06 02:03:11;;;;;;;9.05;3.33;;;;;;;10.52;100.00;163313.81;4994587;28;20053;-61
2022/07/06 02:05:36;;;;;;;4.63;3.45;;;;;;;10.47;100.00;163301.66;5011730;28;20177;-60
2022/07/06 02:08:02;;;;;;;7.85;4.15;;;;;;;10.43;100.00;163290.84;5013600;28;20029;-63
2022/07/06 02:10:27;;;;;;;9.23;3.83;;;;;;;10.38;100.00;163278.72;5011356;28;20507;-63
2022/07/06 02:12:52;;;;;;;3.92;3.50;;;;;;;10.36;100.00;163273.25;5013209;28;20103;-62
2022/07/06 02:15:17;;;;;;;4.30;3.08;;;;;;;10.34;100.00;163267.84;5011964;28;20050;-62
2022/07/06 02:17:43;;;;;;;3.92;3.67;;;;;;;10.31;100.00;163259.78;5011471;28;20029;-62
2022/07/06 02:20:09;;;;;;;6.13;3.40;;;;;;;10.31;100.00;163259.78;4992047;28;20049;-63
2022/07/06 02:22:34;;;;;;;3.95;3.65;;;;;;;10.28;100.00;163251.66;5002076;28;20032;-63
2022/07/06 02:24:59;;;;;;;4.55;3.75;;;;;;;9.99;100.00;163176.09;5020268;28;20042;-63
2022/07/06 02:27:25;;;;;;;4.78;3.55;;;;;;;10.21;100.00;163234.09;5022359;28;20489;-62
2022/07/06 02:29:50;;;;;;;3.97;3.60;;;;;;;10.16;100.00;163221.94;5021861;28;20114;-63
2022/07/06 02:32:16;;;;;;;6.43;3.53;;;;;;;10.07;100.00;163197.69;5019020;28;20072;-61
2022/07/06 02:34:41;;;;;;;6.18;3.55;;;;;;;10.20;100.00;163231.41;5018750;28;20038;-61
2022/07/06 02:37:06;;;;;;;5.13;4.70;;;;;;;10.17;100.00;163223.34;5020877;28;20022;-61
2022/07/06 02:39:32;;;;;;;7.35;3.83;;;;;;;10.23;100.00;163238.19;5020256;28;20076;-61
2022/07/06 02:41:57;;;;;;;4.97;3.47;;;;;;;10.24;100.00;163240.91;5023130;28;20021;-61
2022/07/06 02:44:22;;;;;;;3.78;3.30;;;;;;;10.28;100.00;163251.66;5022145;28;20041;-62
2022/07/06 02:46:48;;;;;;;5.40;4.00;;;;;;;10.33;100.00;163265.16;5020519;28;20034;-62
2022/07/06 02:49:13;;;;;;;8.63;3.75;;;;;;;10.39;100.00;163281.38;5012572;28;20037;-62
2022/07/06 02:51:38;;;;;;;3.33;3.08;;;;;;;10.45;100.00;163297.63;5019248;28;20115;-62
2022/07/06 02:54:04;;;;;;;5.53;3.08;;;;;;;10.51;100.00;163312.44;5019179;28;20018;-62
2022/07/06 02:56:29;;;;;;;8.25;3.80;;;;;;;10.58;100.00;163331.31;5016421;28;20041;-62
2022/07/06 02:58:55;;;;;;;6.13;3.15;;;;;;;10.69;100.00;163358.34;5021186;28;20052;-62
2022/07/06 03:01:20;;;;;;;8.23;4.75;;;;;;;10.77;100.00;163381.28;5015734;28;20049;-62
2022/07/06 03:03:45;;;;;;;7.55;3.85;;;;;;;10.87;100.00;163405.59;5021599;28;20076;-61
2022/07/06 03:06:11;;;;;;;4.38;3.67;;;;;;;10.94;100.00;163424.50;5019642;28;20076;-61
2022/07/06 03:08:36;;;;;;;4.07;2.78;;;;;;;11.01;100.00;163442.06;5023106;28;20020;-61
2022/07/06 03:11:01;;;;;;;7.57;4.57;;;;;;;11.02;100.00;163446.09;5016007;28;20053;-61
2022/07/06 03:13:28;;;;;;;4.07;3.78;;;;;;;11.10;100.00;163466.31;5019175;28;20058;-61
2022/07/06 03:15:53;;;;;;;6.22;3.15;;;;;;;11.16;100.00;163482.56;5019139;28;20037;-61
2022/07/06 03:18:19;;;;;;;8.35;5.07;;;;;;;11.17;100.00;163483.91;5020261;28;20072;-61
2022/07/06 03:20:44;;;;;;;12.18;4.22;;;;;;;11.17;100.00;163485.22;5019462;28;20038;-61
2022/07/06 03:23:10;;;;;;;5.30;3.22;;;;;;;11.20;100.00;163492.03;5022060;28;20080;-61
2022/07/06 03:25:35;;;;;;;21.52;3.80;;;;;;;11.13;100.00;163473.13;5018791;28;20042;-61
2022/07/06 03:28:00;;;;;;;6.65;4.32;;;;;;;11.33;100.00;163527.13;5018930;28;20041;-62
2022/07/06 03:30:26;;;;;;;5.95;3.25;;;;;;;11.36;100.00;163535.19;5020358;28;20033;-62
2022/07/06 03:32:51;;;;;;;5.50;3.65;;;;;;;11.43;100.00;163554.09;5019866;28;20030;-62
2022/07/06 03:35:17;;;;;;;9.77;3.85;;;;;;;11.49;100.00;163568.97;5018737;28;20747;-62
2022/07/06 03:37:42;;;;;;;21.30;5.68;;;;;;;11.54;100.00;163581.13;5022269;28;20029;-62
2022/07/06 03:40:08;;;;;;;7.72;2.85;;;;;;;11.59;100.00;163596.00;5018010;28;20117;-61
2022/07/06 03:42:33;;;;;;;5.50;2.88;;;;;;;11.61;100.00;163600.03;5022887;28;20030;-61
2022/07/06 03:44:58;;;;;;;8.25;3.05;;;;;;;11.64;100.00;163608.16;5018541;28;20429;-62
2022/07/06 03:47:24;;;;;;;7.47;3.63;;;;;;;11.65;100.00;163610.88;5021926;28;20021;-60
2022/07/06 03:49:49;;;;;;;8.73;4.03;;;;;;;11.66;100.00;163613.53;5019578;28;20034;-60
2022/07/06 03:52:15;;;;;;;7.85;4.03;;;;;;;11.72;100.00;163629.78;5020264;28;20037;-60
2022/07/06 03:54:40;;;;;;;10.10;4.40;;;;;;;11.75;100.00;163636.53;5015873;28;20017;-60
2022/07/06 03:57:05;;;;;;;15.68;3.67;;;;;;;11.71;100.00;163627.06;5021240;28;20013;-60
2022/07/06 03:59:30;;;;;;;8.38;3.55;;;;;;;11.80;100.00;163648.69;5016106;28;20040;-60
2022/07/06 04:01:56;;;;;;;6.90;2.83;;;;;;;11.73;100.00;163632.44;5021707;28;20024;-60
2022/07/06 04:04:21;;;;;;;4.80;3.63;;;;;;;11.89;100.00;163672.97;5019889;28;20024;-60
2022/07/06 04:06:46;;;;;;;3.70;3.33;;;;;;;11.91;100.00;163678.38;5016082;28;20485;-60
2022/07/06 04:09:12;;;;;;;4.30;3.03;;;;;;;11.95;100.00;163689.16;5016351;28;20072;-60
2022/07/06 04:11:37;;;;;;;9.88;3.10;;;;;;;11.83;100.00;163656.75;5020544;28;20045;-59
2022/07/06 04:14:03;;;;;;;4.15;2.53;;;;;;;11.97;100.00;163694.63;5019970;28;20072;-57
2022/07/06 04:16:28;;;;;;;9.07;3.50;;;;;;;12.00;100.00;163702.75;5017157;28;20044;-57
2022/07/06 04:18:53;;;;;;;5.65;3.13;;;;;;;12.01;100.00;163705.47;5021582;28;20068;-57
2022/07/06 04:21:19;;;;;;;6.70;4.05;;;;;;;12.03;100.00;163710.84;5017846;28;20035;-58
2022/07/06 04:23:44;;;;;;;12.63;3.90;;;;;;;12.11;100.00;163729.75;5020838;28;20021;-57
2022/07/06 04:26:09;;;;;;;4.57;2.75;;;;;;;12.15;100.00;163740.59;5019366;28;20046;-57
2022/07/06 04:28:35;;;;;;;4.57;2.40;;;;;;;12.24;100.00;163764.91;5027972;28;20049;-57
2022/07/06 04:31:00;;;;;;;5.47;2.10;;;;;;;12.25;100.00;163767.59;5029317;28;20404;-57
2022/07/06 04:33:25;;;;;;;12.98;3.13;;;;;;;12.26;100.00;163770.28;5003120;28;20022;-57
2022/07/06 04:35:51;;;;;;;7.32;3.38;;;;;;;12.31;100.00;163783.84;4990638;28;20089;-57
2022/07/06 04:38:16;;;;;;;9.25;3.35;;;;;;;12.38;100.00;163802.75;4996966;28;20095;-57
2022/07/06 04:40:42;;;;;;;9.57;3.30;;;;;;;12.49;100.00;163829.75;4999060;28;20049;-57
2022/07/06 04:43:07;;;;;;;9.27;3.05;;;;;;;12.56;100.00;163848.66;4991224;28;20030;-57
2022/07/06 04:45:32;;;;;;;3.90;2.20;;;;;;;12.56;100.00;163848.66;4998423;28;20486;-57
2022/07/06 04:47:58;;;;;;;8.50;2.85;;;;;;;12.52;100.00;163837.88;5010165;28;20048;-57
2022/07/06 04:50:23;;;;;;;13.70;3.20;;;;;;;12.66;100.00;163874.34;5009127;28;20042;-57
2022/07/06 04:52:48;;;;;;;5.97;3.25;;;;;;;12.70;100.00;163886.50;5011021;28;20037;-57
2022/07/06 04:55:14;;;;;;;6.07;2.50;;;;;;;12.69;100.00;163883.84;5009166;28;20045;-57
2022/07/06 04:57:40;;;;;;;4.88;2.75;;;;;;;12.72;100.00;163890.59;5010921;28;20025;-57
2022/07/06 05:00:07;;;;;;;4.72;2.17;;;;;;;12.61;100.00;163860.84;5019776;28;20132;-56
2022/07/06 05:02:32;;;;;;;5.22;3.45;;;;;;;12.77;100.00;163902.75;5021111;28;20033;-56
2022/07/06 05:04:58;;;;;;;6.65;2.83;;;;;;;12.77;100.00;163904.09;5017439;28;20061;-57
2022/07/06 05:07:28;;;;;;;6.43;3.22;;;;;;;12.76;100.00;163900.06;5020592;28;20044;-56
2022/07/06 05:09:53;;;;;;;3.80;2.20;;;;;;;12.76;100.00;163901.38;5019585;28;20033;-57
2022/07/06 05:12:18;;;;;;;6.00;2.58;;;;;;;12.81;100.00;163913.56;5021163;28;20079;-56
2022/07/06 05:14:44;;;;;;;5.85;2.28;;;;;;;12.79;100.00;163908.13;5019056;28;20068;-57
2022/07/06 05:17:09;;;;;;;2.95;2.60;;;;;;;12.78;100.00;163905.44;5018594;28;20029;-57
2022/07/06 05:19:34;;;;;;;6.22;2.72;;;;;;;12.77;100.00;163902.75;5017633;28;20385;-57
2022/07/06 05:22:00;;;;;;;4.32;2.15;;;;;;;12.77;100.00;163902.75;5020629;28;20013;-57
2022/07/06 05:24:25;;;;;;;5.57;2.50;;;;;;;12.78;100.00;163905.44;5020237;28;20018;-57
2022/07/06 05:26:50;;;;;;;5.72;2.88;;;;;;;12.75;100.00;163897.34;5015191;28;20049;-56
2022/07/06 05:29:16;;;;;;;5.95;2.53;;;;;;;12.73;100.00;163891.94;5021109;28;20022;-57
2022/07/06 05:31:41;;;;;;;5.60;2.38;;;;;;;12.74;100.00;163895.97;5017905;28;20049;-57
2022/07/06 05:34:06;;;;;;;4.70;3.17;;;;;;;12.74;100.00;163894.63;5019615;28;20036;-56
2022/07/06 05:36:32;;;;;;;9.50;3.33;;;;;;;12.64;100.00;163870.28;5019840;28;20092;-57
2022/07/06 05:38:57;;;;;;;8.52;3.13;;;;;;;12.80;100.00;163910.84;5016011;28;20462;-57
2022/07/06 05:41:22;;;;;;;3.83;2.75;;;;;;;12.81;100.00;163913.56;5018933;28;20037;-57
2022/07/06 05:43:48;;;;;;;9.98;3.78;;;;;;;12.78;100.00;163906.81;5020841;28;20469;-57
2022/07/06 05:46:13;;;;;;;5.45;2.47;;;;;;;12.76;100.00;163900.06;5020367;28;20404;-57
2022/07/06 05:51:22;;;;;;;2.65;2.45;;;;;;;12.81;100.00;163913.56;5019777;28;20401;-57
2022/07/06 05:53:48;;;;;;;6.95;2.53;;;;;;;12.76;100.00;163900.06;5022767;28;20026;-56
2022/07/06 05:56:13;;;;;;;4.85;3.08;;;;;;;12.66;100.00;163875.72;5022718;28;20029;-56
2022/07/06 05:58:39;;;;;;;13.25;3.60;;;;;;;12.81;100.00;163914.88;5022575;28;20386;-57
2022/07/06 06:01:06;;;;;;;4.05;2.22;;;;;;;12.81;100.00;163913.56;5021183;28;20048;-57
2022/07/06 06:03:32;;;;;;;6.85;3.67;;;;;;;12.82;100.00;163917.59;5024197;28;20461;-56
2022/07/06 06:05:57;;;;;;;5.38;2.40;;;;;;;12.91;100.00;163940.63;5020767;28;20049;-57
2022/07/06 06:08:22;;;;;;;5.35;2.53;;;;;;;12.90;100.00;163937.91;5017982;28;20026;-57
2022/07/06 06:10:48;;;;;;;7.70;3.28;;;;;;;12.90;100.00;163937.91;5012460;28;20405;-57
2022/07/06 06:13:13;;;;;;;4.13;2.53;;;;;;;12.97;100.00;163956.81;5013427;28;20033;-56
2022/07/06 06:15:39;;;;;;;5.97;2.75;;;;;;;13.08;100.00;163983.81;5012012;28;20038;-56
2022/07/06 06:18:04;;;;;;;4.00;1.85;;;;;;;13.19;100.00;164013.59;5012134;28;20030;-57
2022/07/06 06:20:29;;;;;;;9.15;3.38;;;;;;;13.35;100.00;164054.16;5012038;28;20042;-58
2022/07/06 06:22:57;;;;;;;4.85;2.53;;;;;;;13.55;100.00;164106.97;5013269;28;20030;-57
2022/07/06 06:25:29;;;;;;;5.40;1.90;;;;;;;13.77;100.00;164166.47;5011976;28;20042;-57
2022/07/06 06:27:55;;;;;;;3.60;2.33;;;;;;;13.93;100.00;164208.38;5013449;28;20509;-57
2022/07/06 06:30:20;;;;;;;6.93;1.98;;;;;;;14.08;100.00;164246.25;5011560;28;20053;-57
2022/07/06 06:32:45;;;;;;;7.55;3.08;;;;;;;14.21;100.00;164280.06;5013390;28;20025;-57
2022/07/06 06:35:11;;;;;;;7.53;3.00;;;;;;;14.35;100.00;164316.56;5011738;28;20096;-57
2022/07/06 06:37:36;;;;;;;11.98;2.67;;;;;;;14.45;100.00;164343.66;5012927;28;20025;-57
2022/07/06 06:40:02;;;;;;;3.58;2.17;;;;;;;14.41;100.00;164332.78;5011335;28;20112;-57
2022/07/06 06:42:28;;;;;;;6.88;1.80;;;;;;;14.48;100.00;164351.78;5013154;28;20052;-57
2022/07/06 06:44:53;;;;;;;3.55;2.00;;;;;;;14.63;100.00;164391.00;5011374;28;20493;-57
2022/07/06 06:47:20;;;;;;;3.03;2.35;;;;;;;14.70;100.00;164408.66;5012857;28;20363;-57
2022/07/06 06:49:45;;;;;;;8.57;2.45;;;;;;;14.66;100.00;164399.19;5011832;28;20076;-57
2022/07/06 06:52:11;;;;;;;4.40;3.42;;;;;;;14.78;100.00;164428.94;5012362;28;20025;-59
2022/07/06 06:54:36;;;;;;;5.38;2.10;;;;;;;14.67;100.00;164401.84;5011416;28;20077;-57
2022/07/06 06:57:02;;;;;;;2.67;1.75;;;;;;;14.85;100.00;164447.88;5012519;28;20053;-57
2022/07/06 06:59:27;;;;;;;2.38;2.05;;;;;;;14.89;100.00;164460.06;5012445;28;20116;-57
2022/07/06 07:01:52;;;;;;;2.78;1.75;;;;;;;14.98;100.00;164481.72;5011363;28;20034;-57
2022/07/06 07:04:18;;;;;;;5.57;2.55;;;;;;;15.08;100.00;164508.75;5012470;28;20084;-57
2022/07/06 07:06:43;;;;;;;8.18;2.47;;;;;;;15.22;100.00;164546.72;5010759;28;20045;-57
2022/07/06 07:09:08;;;;;;;6.93;2.03;;;;;;;15.43;100.00;164600.84;5012563;28;20037;-57
2022/07/06 07:11:34;;;;;;;5.97;3.05;;;;;;;15.66;100.00;164660.41;5011141;28;20066;-57
2022/07/06 07:14:00;;;;;;;4.53;2.30;;;;;;;15.79;100.00;164695.59;5012036;28;20037;-57
2022/07/06 07:16:26;;;;;;;4.15;2.08;;;;;;;15.89;100.00;164721.38;5010791;28;20034;-57
2022/07/06 07:18:51;;;;;;;3.40;1.80;;;;;;;16.15;100.00;164789.09;5012581;28;20033;-58
2022/07/06 07:21:17;;;;;;;7.03;3.58;;;;;;;16.50;100.00;164882.53;5010436;28;20034;-58
2022/07/06 07:23:42;;;;;;;5.60;1.75;;;;;;;16.71;100.00;164936.75;5012450;28;20021;-57
2022/07/06 07:26:08;;;;;;;3.80;2.03;;;;;;;16.83;100.00;164966.53;5009904;28;20061;-57
2022/07/06 07:28:33;;;;;;;5.13;1.52;;;;;;;16.91;100.00;164988.22;5012391;28;20069;-57
2022/07/06 07:30:59;;;;;;;5.25;1.70;;;;;;;17.10;100.00;165038.41;5010217;28;20045;-57
2022/07/06 07:33:24;;;;;;;8.27;2.05;;;;;;;17.16;100.00;165053.31;5012056;28;20018;-57
2022/07/06 07:35:49;;;;;;;3.42;1.83;;;;;;;17.18;100.00;165060.06;5010846;28;20034;-57
2022/07/06 07:38:15;;;;;;;8.52;1.88;;;;;;;17.21;100.00;165066.84;5011631;28;20394;-57
2022/07/06 07:40:40;;;;;;;7.07;2.50;;;;;;;17.25;100.00;165077.66;5010232;28;20048;-57
2022/07/06 07:43:05;;;;;;;7.10;2.35;;;;;;;17.57;100.00;165161.72;5011824;28;20029;-57
2022/07/06 07:45:31;;;;;;;3.33;1.45;;;;;;;17.88;100.00;165244.38;5010236;28;20493;-57
2022/07/06 07:47:57;;;;;;;2.70;1.40;;;;;;;18.08;100.00;165295.97;5012002;28;20044;-57
2022/07/06 07:50:22;;;;;;;2.95;1.40;;;;;;;17.76;100.00;165211.84;5010395;28;20038;-58
2022/07/06 07:52:48;;;;;;;3.90;1.88;;;;;;;17.77;100.00;165215.91;5011421;28;20040;-57
2022/07/06 07:55:13;;;;;;;8.38;1.30;;;;;;;17.60;100.00;165171.19;5009946;28;20405;-57
2022/07/06 07:57:39;;;;;;;5.53;2.05;;;;;;;17.40;100.00;165118.31;5011902;28;20018;-57
2022/07/06 08:00:05;;;;;;;4.05;1.30;;;;;;;17.16;100.00;165054.66;5009848;28;20045;-57
2022/07/06 08:02:30;;;;;;;22.92;3.55;;;;;;;17.09;100.00;165037.00;5011402;28;20030;-57
2022/07/06 08:04:55;;;;;;;4.97;1.88;;;;;;;17.09;100.00;165037.00;5010316;28;20049;-57
2022/07/06 08:07:21;;;;;;;5.80;2.28;;;;;;;17.57;100.00;165163.03;5010563;28;20026;-57
2022/07/06 08:09:46;;;;;;;3.88;1.75;;;;;;;17.70;100.00;165196.94;5010104;28;20397;-57
2022/07/06 08:12:11;;;;;;;1.75;1.15;;;;;;;17.79;100.00;165220.00;5011494;28;20544;-57
2022/07/06 08:14:37;;;;;;;6.93;1.48;;;;;;;17.63;100.00;165177.97;5009871;28;20022;-57
2022/07/06 08:17:03;;;;;;;5.30;1.65;;;;;;;17.68;100.00;165191.56;5011213;28;20064;-57
2022/07/06 08:19:30;;;;;;;3.28;1.23;;;;;;;17.68;100.00;165191.56;5011322;28;20018;-57
2022/07/06 08:21:55;;;;;;;3.42;1.02;;;;;;;17.80;100.00;165221.34;5009758;28;20095;-57
2022/07/06 08:24:21;;;;;;;2.25;1.17;;;;;;;17.74;100.00;165206.44;4998146;28;20026;-57
2022/07/06 08:26:46;;;;;;;8.73;1.50;;;;;;;17.56;100.00;165160.38;4989990;28;20042;-57
2022/07/06 08:29:11;;;;;;;1.40;1.20;;;;;;;17.54;100.00;165153.56;4999548;28;20022;-58
2022/07/06 08:31:37;;;;;;;3.85;1.55;;;;;;;17.57;100.00;165161.72;4992340;28;20502;-57
2022/07/06 08:34:02;;;;;;;2.35;1.08;;;;;;;17.45;100.00;165130.53;4991538;28;20030;-57
2022/07/06 08:36:28;;;;;;;5.35;1.02;;;;;;;17.32;100.00;165096.63;5005666;28;20045;-57
2022/07/06 08:38:54;;;;;;;3.60;1.30;;;;;;;17.33;100.00;165099.34;5010999;28;20418;-57
2022/07/06 08:41:23;;;;;;;3.25;2.05;;;;;;;17.27;100.00;165083.09;5001376;28;20038;-57
2022/07/06 08:43:50;;;;;;;3.58;1.10;;;;;;;17.49;100.00;165140.03;4993789;28;20026;-57
2022/07/06 08:46:16;;;;;;;1.60;0.82;;;;;;;17.33;100.00;165098.03;5009306;28;20124;-58
2022/07/06 08:48:41;;;;;;;1.23;1.00;;;;;;;17.58;100.00;165164.44;5011256;28;20030;-57
2022/07/06 08:51:07;;;;;;;2.95;1.35;;;;;;;17.72;100.00;165201.03;5009260;28;20037;-57
2022/07/06 08:53:33;;;;;;;1.95;1.30;;;;;;;17.87;100.00;165240.31;5011210;28;20030;-57
2022/07/06 08:55:59;;;;;;;3.38;1.60;;;;;;;18.18;100.00;165323.06;5009528;28;20096;-58
2022/07/06 08:58:25;;;;;;;5.47;1.10;;;;;;;18.85;100.00;165498.00;5010782;28;20033;-57
2022/07/06 09:00:50;;;;;;;4.90;1.02;;;;;;;19.48;100.00;165663.53;5009521;28;20064;-57
2022/07/06 09:03:16;;;;;;;3.92;2.38;;;;;;;19.79;100.00;165744.97;5010996;28;20034;-57
2022/07/06 09:05:45;;;;;;;2.95;1.05;;;;;;;19.90;100.00;165774.88;5009235;28;20042;-57
2022/07/06 09:08:11;;;;;;;3.20;1.85;;;;;;;20.27;100.00;165872.63;5010707;28;20111;-58
2022/07/06 09:10:37;;;;;;;1.45;0.93;;;;;;;20.46;100.00;165921.44;5009624;28;20485;-57
2022/07/06 09:13:07;;;;;;;1.52;0.85;;;;;;;20.19;100.00;165850.88;5010542;28;20044;-58
2022/07/06 09:15:34;;;;;;;4.95;1.38;;;;;;;19.92;100.00;165780.28;5009732;28;20053;-57
2022/07/06 09:17:59;;;;;;;1.90;1.30;;;;;;;19.62;100.00;165701.53;5011141;28;20030;-58
2022/07/06 09:20:24;;;;;;;1.73;0.80;;;;;;;19.61;100.00;165698.84;5012791;28;20045;-57
2022/07/06 09:22:50;;;;;;;3.72;0.95;;;;;;;19.51;100.00;165671.69;5014558;28;20034;-57
2022/07/06 09:25:16;;;;;;;2.78;0.98;;;;;;;18.87;100.00;165504.78;5013090;28;20440;-57
2022/07/06 09:27:54;;;;;;;5.32;0.98;;;;;;;19.13;100.00;165571.31;5014051;28;20077;-57
2022/07/06 09:30:20;;;;;;;9.65;1.48;;;;;;;19.48;100.00;165663.53;5012943;28;20073;-58
2022/07/06 09:32:48;;;;;;;3.75;1.17;;;;;;;19.93;100.00;165783.00;5014670;28;20018;-57
2022/07/06 09:35:21;;;;;;;6.03;1.00;;;;;;;20.40;100.00;165905.16;5012540;28;20049;-57
2022/07/06 09:37:47;;;;;;;4.90;0.80;;;;;;;20.69;100.00;165981.19;5013261;28;20104;-57
2022/07/06 09:40:19;;;;;;;4.13;0.90;;;;;;;20.88;100.00;166032.84;5012416;28;20042;-57
2022/07/06 09:42:44;;;;;;;2.33;0.93;;;;;;;20.75;100.00;165997.53;5014000;28;20453;-57
2022/07/06 09:45:10;;;;;;;1.80;0.60;;;;;;;21.01;100.00;166065.44;5012763;28;20045;-57
2022/07/06 09:47:37;;;;;;;2.25;0.90;;;;;;;20.69;100.00;165981.19;5014161;28;20052;-57
2022/07/06 09:50:05;;;;;;;5.00;1.35;;;;;;;20.11;100.00;165830.50;5012088;28;20042;-57
2022/07/06 09:52:34;;;;;;;3.50;0.80;;;;;;;20.25;100.00;165867.16;5014093;28;20041;-57
2022/07/06 09:54:59;;;;;;;3.28;1.45;;;;;;;19.91;100.00;165776.22;5012539;28;20498;-57
2022/07/06 09:57:24;;;;;;;2.85;1.05;;;;;;;19.75;100.00;165734.13;5013774;28;20072;-57
2022/07/06 09:59:51;;;;;;;2.08;0.73;;;;;;;19.28;100.00;165612.00;5012487;28;20401;-57
2022/07/06 10:02:18;;;;;;;5.88;2.30;;;;;;;19.25;100.00;165602.50;5013605;28;20129;-56
2022/07/06 10:04:44;;;;;;;11.98;3.13;;;;;;;19.78;100.00;165742.25;5012036;28;20032;-56
2022/07/06 10:07:11;;;;;;;2.53;1.02;;;;;;;20.29;100.00;165878.00;5013496;28;20045;-57
2022/07/06 10:09:37;;;;;;;1.48;0.80;;;;;;;20.38;100.00;165899.72;5012369;28;20057;-56
2022/07/06 10:12:05;;;;;;;6.78;1.52;;;;;;;20.21;100.00;165856.31;5013233;28;20060;-57
2022/07/06 10:14:33;;;;;;;3.70;0.97;;;;;;;19.95;100.00;165788.44;5012780;28;20046;-57
2022/07/06 10:17:00;;;;;;;4.70;0.80;;;;;;;19.84;100.00;165758.63;5013499;28;20642;-57
2022/07/06 10:19:27;;;;;;;1.13;0.70;;;;;;;19.64;100.00;165706.97;5013337;28;20067;-56
2022/07/06 10:21:52;;;;;;;1.35;1.08;;;;;;;19.42;100.00;165647.25;5006845;28;20491;-57
2022/07/06 10:24:19;;;;;;;4.47;0.93;;;;;;;19.12;100.00;165569.97;5011241;28;20030;-57
2022/07/06 10:26:45;;;;;;;2.67;0.90;;;;;;;18.74;100.00;165469.53;5011149;28;20041;-57
2022/07/06 10:29:11;;;;;;;4.30;1.23;;;;;;;18.65;100.00;165445.13;5011876;28;20037;-57
2022/07/06 10:31:40;;;;;;;4.93;1.10;;;;;;;18.53;100.00;165415.31;5011231;28;20406;-57
2022/07/06 10:34:09;;;;;;;1.88;1.13;;;;;;;18.53;100.00;165413.91;5012100;28;20101;-57
2022/07/06 10:36:39;;;;;;;0.98;0.82;;;;;;;18.66;100.00;165447.84;5011561;28;20514;-57
2022/07/06 10:41:02;;;;;;;2.00;1.38;;;;;;;18.46;100.00;165396.31;5012458;28;20109;-57
2022/07/06 10:41:50;;;;;;;1.35;0.75;;;;;;;18.95;100.00;165523.81;5011010;28;20037;-57
2022/07/06 10:44:21;;;;;;;1.83;0.82;;;;;;;19.23;100.00;165598.44;5012668;28;20032;-57
2022/07/06 10:46:58;;;;;;;1.20;0.80;;;;;;;18.96;100.00;165526.56;5011395;28;20524;-57
2022/07/06 10:49:25;;;;;;;1.92;0.70;;;;;;;19.21;100.00;165591.69;5012311;28;20070;-57
2022/07/06 10:51:51;;;;;;;2.30;1.20;;;;;;;19.68;100.00;165715.13;5011386;28;20042;-57
2022/07/06 10:54:19;;;;;;;2.53;1.10;;;;;;;19.78;100.00;165743.63;5012468;28;20033;-57
2022/07/06 10:56:46;;;;;;;4.43;1.30;;;;;;;19.80;100.00;165749.06;5011125;28;20082;-57
2022/07/06 10:59:17;;;;;;;0.80;0.80;;;;;;;20.23;100.00;165860.38;5012426;28;20141;-56
2022/07/06 11:02:11;;;;;;;1.02;0.88;;;;;;;20.69;100.00;165982.56;5010941;28;20050;-57
2022/07/06 11:04:37;;;;;;;2.65;1.00;;;;;;;21.06;100.00;166079.00;5010831;28;20117;-57
2022/07/06 11:07:29;;;;;;;3.40;0.88;;;;;;;21.47;100.00;166187.66;5012238;28;20038;-57
2022/07/06 11:09:59;;;;;;;3.88;1.38;;;;;;;21.28;100.00;166136.03;5009752;28;20038;-58
2022/07/06 11:12:25;;;;;;;1.95;0.80;;;;;;;21.39;100.00;166165.94;5010830;28;20535;-57
2022/07/06 11:14:52;;;;;;;1.27;0.82;;;;;;;21.52;100.00;166201.22;5010833;28;20505;-57
2022/07/06 11:17:19;;;;;;;3.95;1.45;;;;;;;21.03;100.00;166072.22;5012062;28;20025;-57